Phra Nakhon Si Ayutthaya, Thailand
Current Conditions -  °F | °C
As of 3:30 AM on Tuesday 23 Dec 2014 (Local Time) from VTBD Reporting Station
Clear Clear  
Wind Chill: 70°   Ceiling: Unl
Heat Index: 70°   Visibility: 5mi
Dew Point: 55°   Wind: 10mph
Humidity: 60%   Direction: 340°NNW
Pressure: 29.88"   Gusts: NA
Location:  14.4°N, 100.52°E
Report Text: VTBD 222030Z 34009KT 8000 NSC 21/13 Q1012 NOSIG
Loading
Personal Weather Stations






























Interactive Weather Map New forecast layout! Learn more

10-Day Weather Forecast

Advertisements
Track Severe Weather on mobile